createdAt,value
2022-11-11T00:11:07.027Z,3.00
2022-11-11T00:13:35.324Z,2.70
2022-11-11T00:34:21.373Z,3.67
2022-11-11T00:45:26.993Z,3.33
2022-11-11T00:52:19.833Z,2.70
2022-11-11T00:54:47.577Z,2.72
2022-11-11T00:57:15.079Z,3.53
2022-11-11T00:59:43.684Z,2.90
2022-11-11T01:02:11.299Z,3.35
2022-11-11T01:04:38.763Z,3.00
2022-11-11T01:07:06.391Z,2.47
2022-11-11T01:09:34.134Z,3.00
2022-11-11T01:12:01.613Z,2.92
2022-11-11T01:14:29.124Z,3.05
2022-11-11T01:16:56.666Z,3.38
2022-11-11T01:19:24.219Z,3.25
2022-11-11T01:21:51.942Z,2.90
2022-11-11T01:24:19.804Z,3.60
2022-11-11T01:32:08.941Z,2.60
2022-11-11T01:34:36.461Z,3.50
2022-11-11T01:37:04.305Z,3.42
2022-11-11T01:39:32.033Z,4.78
2022-11-11T01:42:02.101Z,3.10
2022-11-11T01:44:45.143Z,3.00
2022-11-11T01:47:13.069Z,3.47
2022-11-11T01:54:10.210Z,3.20
2022-11-11T01:56:38.762Z,3.13
2022-11-11T01:59:12.245Z,2.83
2022-11-11T02:01:40.582Z,3.50
2022-11-11T02:04:27.145Z,3.35
2022-11-11T02:06:57.074Z,2.92
2022-11-11T02:09:25.056Z,2.70
2022-11-11T02:12:12.307Z,3.42
2022-11-11T02:14:43.399Z,3.00
2022-11-11T02:17:14.089Z,3.88
2022-11-11T02:19:51.008Z,3.13
2022-11-11T02:22:42.179Z,4.18
2022-11-11T02:25:12.282Z,2.67
2022-11-11T02:27:42.561Z,2.95
2022-11-11T02:30:15.804Z,3.00
2022-11-11T02:32:45.064Z,3.15
2022-11-11T02:35:30.321Z,2.90
2022-11-11T02:37:57.988Z,3.13
2022-11-11T02:40:39.234Z,3.13
2022-11-11T02:43:06.883Z,3.58
2022-11-11T02:45:34.694Z,3.13
2022-11-11T02:48:02.335Z,3.30
2022-11-11T02:50:30.074Z,2.88
2022-11-11T02:52:57.717Z,3.45
2022-11-11T02:55:25.231Z,3.53
2022-11-11T02:57:52.748Z,3.10
2022-11-11T03:00:20.322Z,2.72
2022-11-11T03:02:48.248Z,2.78
2022-11-11T03:05:16.024Z,3.20
2022-11-11T03:07:43.944Z,3.20
2022-11-11T03:10:11.649Z,3.30
2022-11-11T03:12:39.163Z,3.80
2022-11-11T03:15:07.329Z,2.80
2022-11-11T03:17:41.111Z,2.75
2022-11-11T03:20:31.125Z,2.75
2022-11-11T03:23:14.697Z,3.08
2022-11-11T03:25:44.568Z,3.25
2022-11-11T03:28:17.333Z,3.25
2022-11-11T03:30:46.864Z,2.53
2022-11-11T03:33:15.552Z,3.00
2022-11-11T04:33:17.026Z,3.42
2022-11-11T04:35:49.661Z,3.22
2022-11-11T04:38:35.387Z,4.40
2022-11-11T04:41:06.843Z,3.45
2022-11-11T04:43:54.472Z,2.67
2022-11-11T04:46:21.939Z,2.90
2022-11-11T04:48:49.433Z,3.45
2022-11-11T04:51:16.910Z,4.20
2022-11-11T04:53:44.279Z,3.35
2022-11-11T04:56:30.478Z,3.20
2022-11-11T04:59:29.994Z,3.28
2022-11-11T06:53:15.907Z,4.38
2022-11-11T06:55:43.756Z,3.47
2022-11-11T06:58:13.269Z,3.53
2022-11-11T07:00:40.894Z,4.22
2022-11-11T07:03:11.233Z,3.55
2022-11-11T07:05:39.326Z,3.47
2022-11-11T07:08:09.455Z,3.35
2022-11-11T07:10:38.853Z,3.60
2022-11-11T07:13:07.160Z,3.70
2022-11-11T07:15:35.481Z,4.07
2022-11-11T07:18:03.215Z,3.10
2022-11-11T07:20:31.164Z,4.47
2022-11-11T07:22:58.525Z,3.05
2022-11-11T07:25:26.250Z,3.30
2022-11-11T07:27:58.714Z,3.95
2022-11-11T07:30:27.096Z,3.45
2022-11-11T07:32:54.817Z,3.00
2022-11-11T07:35:22.792Z,3.35
2022-11-11T07:37:50.618Z,3.33
2022-11-11T07:40:19.301Z,3.03
2022-11-11T07:42:47.142Z,3.55
2022-11-11T07:45:15.462Z,2.60
2022-11-11T07:47:46.115Z,3.67
2022-11-11T07:50:13.922Z,4.00
2022-11-11T07:52:48.711Z,3.85
2022-11-11T07:55:16.311Z,3.60
2022-11-11T07:57:43.922Z,3.20
2022-11-11T08:00:12.719Z,3.78
2022-11-11T08:02:40.434Z,3.92
2022-11-11T08:05:09.242Z,3.30
2022-11-11T08:07:37.813Z,3.50
2022-11-11T08:10:06.007Z,3.53
2022-11-11T08:12:52.207Z,3.50
2022-11-11T08:15:19.802Z,3.97
2022-11-11T08:17:47.285Z,3.22
2022-11-11T08:20:15.010Z,3.78
2022-11-11T08:22:51.599Z,3.33
2022-11-11T08:25:31.213Z,3.13
2022-11-11T08:28:03.128Z,3.15
2022-11-11T08:30:32.172Z,4.05
2022-11-11T08:33:31.810Z,3.75
2022-11-11T08:35:50.779Z,3.67
2022-11-11T08:38:18.137Z,3.97
2022-11-11T08:40:45.627Z,3.40
2022-11-11T08:43:13.106Z,3.15
2022-11-11T08:45:40.605Z,3.50
2022-11-11T08:48:11.795Z,3.42
2022-11-11T08:50:41.320Z,3.60
2022-11-11T08:53:09.989Z,4.07
2022-11-11T08:55:38.665Z,3.75
2022-11-11T08:58:07.026Z,3.30
2022-11-11T09:00:34.962Z,2.83
2022-11-11T09:03:04.136Z,3.50
2022-11-11T09:05:31.604Z,2.72
2022-11-11T09:08:02.693Z,3.10
2022-11-11T09:10:30.400Z,3.70
2022-11-11T09:13:00.915Z,3.15
2022-11-11T09:15:28.857Z,2.97
2022-11-11T09:17:56.456Z,3.42
2022-11-11T09:20:25.943Z,3.30
2022-11-11T09:22:53.696Z,3.97
2022-11-11T09:25:22.029Z,3.60
2022-11-11T09:27:57.197Z,2.78
2022-11-11T09:30:25.884Z,3.20
2022-11-11T09:32:53.596Z,2.83
2022-11-11T09:35:21.312Z,2.53
2022-11-11T09:37:59.591Z,2.83
2022-11-11T09:40:35.948Z,2.78
2022-11-11T09:43:05.601Z,3.08
2022-11-11T09:45:44.820Z,3.40
2022-11-11T09:48:35.596Z,3.22
2022-11-11T09:51:04.514Z,3.10
2022-11-11T09:53:38.346Z,2.90
2022-11-11T09:56:29.468Z,3.20
2022-11-11T09:59:12.799Z,3.33
2022-11-11T10:01:47.000Z,3.20
2022-11-11T10:04:29.851Z,3.60
2022-11-11T10:07:08.041Z,2.90
2022-11-11T10:09:42.789Z,2.45
2022-11-11T10:12:13.289Z,3.00
2022-11-11T10:14:45.691Z,3.58
2022-11-11T10:17:38.135Z,3.15
2022-11-11T10:20:20.894Z,3.10
2022-11-11T10:22:52.166Z,2.83
2022-11-11T10:25:25.048Z,2.80
2022-11-11T10:27:55.766Z,3.67
2022-11-11T10:30:31.369Z,2.75
2022-11-11T10:33:05.013Z,3.10
2022-11-11T10:35:33.471Z,2.88
2022-11-11T10:38:10.298Z,3.25
2022-11-11T10:40:50.029Z,3.13
2022-11-11T10:43:25.546Z,3.00
2022-11-11T10:46:07.975Z,2.55
2022-11-11T10:48:51.344Z,2.50
2022-11-11T10:51:19.181Z,2.92
2022-11-11T10:54:14.879Z,3.38
2022-11-11T10:56:56.756Z,2.70
2022-11-11T10:59:30.001Z,2.83
2022-11-11T11:02:22.312Z,2.55
2022-11-11T11:05:04.199Z,2.42
2022-11-11T11:07:40.073Z,2.45
2022-11-11T11:10:20.633Z,3.45
2022-11-11T11:12:52.921Z,3.08
2022-11-11T11:15:25.083Z,2.83
2022-11-11T11:18:02.885Z,2.38
2022-11-11T11:20:31.324Z,2.72
2022-11-11T11:22:59.661Z,2.38
2022-11-11T11:25:33.608Z,3.08
2022-11-11T11:28:10.332Z,2.50
2022-11-11T11:30:38.053Z,2.80
2022-11-11T11:33:07.220Z,2.55
2022-11-11T11:35:44.775Z,2.53
2022-11-11T11:38:13.833Z,2.55
2022-11-11T11:40:56.554Z,2.50
2022-11-11T11:43:45.501Z,3.03
2022-11-11T11:46:29.528Z,2.42
2022-11-11T11:49:23.143Z,2.47
2022-11-11T11:52:02.783Z,2.53
2022-11-11T11:54:33.028Z,2.35
2022-11-11T11:57:04.351Z,3.10
2022-11-11T11:59:51.165Z,2.22
2022-11-11T12:02:40.133Z,2.55
2022-11-11T12:05:25.599Z,2.10
2022-11-11T12:08:22.487Z,2.00
2022-11-11T12:10:56.324Z,2.28
2022-11-11T12:14:05.096Z,2.13
2022-11-11T12:16:43.594Z,1.80
2022-11-11T12:19:53.447Z,1.75
2022-11-11T12:22:23.459Z,2.55
2022-11-11T12:25:40.492Z,2.00
2022-11-11T12:28:32.340Z,1.90
2022-11-11T12:31:15.064Z,2.22
2022-11-11T12:33:58.253Z,2.22
2022-11-11T12:36:32.813Z,2.67
2022-11-11T12:39:19.736Z,2.28
2022-11-11T12:42:05.466Z,2.30
2022-11-11T12:44:47.699Z,2.08
2022-11-11T12:47:24.419Z,1.80
2022-11-11T12:50:18.785Z,2.40
2022-11-11T12:52:57.430Z,1.80
2022-11-11T12:55:27.788Z,1.75
2022-11-11T12:58:19.751Z,1.92
2022-11-11T13:01:13.429Z,1.83
2022-11-11T13:03:52.872Z,2.10
2022-11-11T13:06:35.417Z,2.42
2022-11-11T13:09:57.436Z,1.90
2022-11-11T13:12:32.747Z,3.08
2022-11-11T13:15:12.811Z,1.83
2022-11-11T13:17:40.167Z,2.38
2022-11-11T13:20:45.813Z,2.38
2022-11-11T13:23:14.723Z,2.13
2022-11-11T13:25:52.272Z,2.28
2022-11-11T13:28:31.167Z,2.13
2022-11-11T13:31:24.112Z,2.65
2022-11-11T13:33:55.424Z,2.35
2022-11-11T13:36:28.423Z,2.50
2022-11-11T13:38:57.815Z,2.15
2022-11-11T13:41:34.660Z,2.42
2022-11-11T13:44:07.905Z,2.47
2022-11-11T13:46:44.492Z,2.08
2022-11-11T13:49:29.270Z,2.05
2022-11-11T13:52:05.028Z,2.20
2022-11-11T13:54:35.864Z,2.13
2022-11-11T13:57:32.292Z,2.63
2022-11-11T14:00:04.336Z,1.83
2022-11-11T14:19:30.000Z,2.92
2022-11-11T14:30:39.496Z,2.70
2022-11-11T14:45:31.338Z,2.90
2022-11-11T14:57:16.604Z,3.60
2022-11-11T15:21:49.851Z,2.63
2022-11-11T15:37:28.134Z,3.60
2022-11-11T15:44:27.574Z,3.17
2022-11-11T15:55:37.374Z,3.70
2022-11-11T15:58:31.190Z,3.70
2022-11-11T16:06:20.018Z,3.00
2022-11-11T16:14:07.897Z,3.75
2022-11-11T16:29:40.679Z,3.28
2022-11-11T16:41:02.184Z,3.70
2022-11-11T17:06:19.201Z,3.15
2022-11-11T17:35:51.860Z,5.55
2022-11-11T17:51:10.345Z,5.18
2022-11-11T18:03:18.438Z,4.70
2022-11-11T18:29:28.376Z,7.60
2022-11-11T18:31:56.614Z,6.00
2022-11-11T18:39:34.714Z,8.93
2022-11-11T18:55:13.518Z,10.02
2022-11-11T19:01:59.750Z,9.40
2022-11-11T19:13:44.608Z,21.50
2022-11-11T19:21:34.180Z,12.52
2022-11-11T19:24:02.965Z,11.40
2022-11-11T19:26:31.886Z,10.32
2022-11-11T19:33:20.322Z,10.20
2022-11-11T19:48:59.977Z,11.43
2022-11-11T19:51:30.737Z,10.32
2022-11-11T20:06:25.307Z,9.88
2022-11-11T20:17:41.550Z,7.30
2022-11-11T20:20:46.674Z,6.97
2022-11-11T20:32:27.535Z,7.15
2022-11-11T20:44:28.619Z,6.75
2022-11-11T21:00:05.942Z,5.95
2022-11-11T21:37:30.100Z,9.65
2022-11-11T21:39:58.116Z,12.45
2022-11-11T21:42:28.872Z,14.00
2022-11-11T22:02:28.470Z,6.22
2022-11-11T22:04:57.190Z,6.90
2022-11-11T22:07:26.636Z,6.05
2022-11-11T22:09:54.141Z,6.28
2022-11-11T22:20:46.769Z,6.90
2022-11-11T22:40:04.413Z,8.98
2022-11-11T22:46:57.814Z,13.15
2022-11-11T23:06:21.461Z,13.43
2022-11-11T23:31:40.565Z,10.18
2022-11-11T23:38:33.002Z,9.55
2022-11-11T23:53:57.988Z,10.37
